Time;durP1;ratioP1;P1;durP2;ratioP2;P2;SDS_P1;SDS_P2;PMS_P1;PMS_P2;Temp;Humidity;BMP_temperature;BMP_pressure;BME280_temperature;BME280_humidity;BME280_pressure;Samples;Min_cycle;Max_cycle;Signal;HPM_P1;HPM_P2
2023/04/02 00:01:45;;;;;;;4.15;2.05;;;19.00;96.40;;;;;;4984644;28;20061;-59
2023/04/02 00:04:21;;;;;;;3.83;2.17;;;19.00;96.40;;;;;;4984327;28;20047;-60
2023/04/02 00:06:53;;;;;;;4.63;2.30;;;19.00;96.40;;;;;;4984799;28;20049;-59
2023/04/02 00:09:28;;;;;;;5.38;2.55;;;19.00;96.40;;;;;;5069360;28;20555;-59
2023/04/02 00:11:54;;;;;;;4.15;1.90;;;19.00;96.30;;;;;;5004116;28;20065;-59
2023/04/02 00:14:24;;;;;;;3.72;1.70;;;19.00;96.20;;;;;;5004924;28;20393;-60
2023/04/02 00:16:52;;;;;;;4.60;2.08;;;18.90;96.10;;;;;;5005313;28;20095;-60
2023/04/02 00:19:26;;;;;;;4.68;2.20;;;18.90;96.10;;;;;;5003800;28;20087;-59
2023/04/02 00:21:53;;;;;;;3.38;1.83;;;18.90;96.00;;;;;;5004838;28;20046;-60
2023/04/02 00:24:20;;;;;;;3.55;2.03;;;18.90;96.00;;;;;;5004674;28;20042;-60
2023/04/02 00:26:49;;;;;;;3.13;1.80;;;18.90;96.00;;;;;;5004265;28;20085;-59
2023/04/02 00:29:16;;;;;;;3.75;1.90;;;18.90;96.00;;;;;;5004598;28;20129;-59
2023/04/02 00:31:47;;;;;;;3.05;1.85;;;18.80;95.90;;;;;;5004866;28;20041;-59
2023/04/02 00:34:23;;;;;;;3.88;1.90;;;18.90;95.90;;;;;;5004044;28;20042;-59
2023/04/02 00:36:51;;;;;;;4.10;2.05;;;18.80;95.70;;;;;;5004431;28;20050;-59
2023/04/02 00:39:26;;;;;;;3.85;2.00;;;18.80;95.70;;;;;;5004726;28;20129;-59
2023/04/02 00:42:03;;;;;;;3.92;1.75;;;18.80;95.70;;;;;;5004496;28;20425;-60
2023/04/02 00:44:41;;;;;;;4.00;2.05;;;18.80;95.90;;;;;;5004301;28;20050;-59
2023/04/02 00:47:36;;;;;;;3.42;1.90;;;18.80;95.60;;;;;;5004801;28;20100;-59
2023/04/02 00:50:10;;;;;;;3.97;2.00;;;18.80;95.50;;;;;;5004746;28;20058;-60
2023/04/02 00:52:38;;;;;;;3.53;1.70;;;18.80;95.50;;;;;;5004169;28;20110;-60
2023/04/02 00:55:10;;;;;;;4.00;1.80;;;18.80;95.50;;;;;;5004434;28;20137;-60
2023/04/02 00:57:36;;;;;;;4.07;1.90;;;18.80;95.50;;;;;;5071950;28;20081;-63
2023/04/02 01:00:14;;;;;;;5.90;2.42;;;18.80;95.50;;;;;;5004450;28;20080;-60
2023/04/02 01:02:41;;;;;;;5.53;2.17;;;18.70;95.40;;;;;;5004930;28;20121;-59
2023/04/02 01:05:16;;;;;;;5.15;1.88;;;18.70;95.40;;;;;;5002582;28;20046;-59
2023/04/02 01:08:04;;;;;;;3.60;2.35;;;18.70;95.40;;;;;;5002742;28;20054;-59
2023/04/02 01:10:32;;;;;;;3.65;1.60;;;18.70;95.40;;;;;;5002909;28;20419;-60
2023/04/02 01:13:20;;;;;;;4.30;1.90;;;18.70;95.40;;;;;;5001459;28;20078;-60
2023/04/02 01:16:23;;;;;;;4.18;1.92;;;18.70;95.40;;;;;;5002518;28;20057;-61
2023/04/02 01:19:07;;;;;;;3.15;1.80;;;18.70;95.30;;;;;;5001924;28;20041;-60
2023/04/02 01:21:36;;;;;;;4.18;1.90;;;18.70;95.30;;;;;;5002081;28;20056;-59
2023/04/02 01:24:14;;;;;;;3.17;1.63;;;18.70;95.20;;;;;;5086805;28;20053;-61
2023/04/02 01:26:56;;;;;;;4.55;2.03;;;18.70;95.20;;;;;;5002146;28;20110;-59
2023/04/02 01:29:28;;;;;;;3.85;1.80;;;18.60;95.10;;;;;;5002031;28;20056;-60
2023/04/02 01:31:59;;;;;;;3.22;1.70;;;18.60;95.00;;;;;;5002341;28;20416;-59
2023/04/02 01:34:27;;;;;;;3.38;1.50;;;18.60;95.00;;;;;;5000884;28;20094;-59
2023/04/02 01:37:15;;;;;;;4.68;2.10;;;18.60;95.00;;;;;;5069596;28;20108;-59
2023/04/02 01:39:53;;;;;;;3.63;1.90;;;18.60;94.90;;;;;;5001936;28;20050;-59
2023/04/02 01:42:27;;;;;;;3.88;1.80;;;18.60;94.80;;;;;;5002658;28;20056;-59
2023/04/02 01:44:59;;;;;;;;;;;18.60;94.80;;;;;;5001988;28;20050;-59
2023/04/02 01:47:27;;;;;;;3.97;1.70;;;18.60;94.70;;;;;;5001961;28;19925;-59
2023/04/02 01:50:00;;;;;;;3.47;2.00;;;18.50;94.70;;;;;;5001385;28;20125;-61
2023/04/02 01:52:36;;;;;;;3.15;1.80;;;18.50;94.60;;;;;;5001913;28;20095;-59
2023/04/02 01:55:03;;;;;;;4.43;1.90;;;18.50;94.60;;;;;;5001801;28;20050;-59
2023/04/02 01:57:29;;;;;;;2.75;1.50;;;18.50;94.50;;;;;;5001626;28;20307;-59
2023/04/02 01:59:55;;;;;;;4.18;1.70;;;18.50;94.50;;;;;;5002104;28;20038;-60
2023/04/02 02:02:24;;;;;;;3.17;1.70;;;18.50;94.50;;;;;;5002299;28;20125;-59
2023/04/02 02:04:50;;;;;;;3.10;1.60;;;18.50;94.40;;;;;;5001001;28;20132;-59
2023/04/02 02:07:19;;;;;;;3.55;1.67;;;18.50;94.40;;;;;;5068376;28;20119;-59
2023/04/02 02:09:47;;;;;;;3.33;1.52;;;18.40;94.40;;;;;;5001879;28;20049;-60
2023/04/02 02:12:14;;;;;;;3.08;1.50;;;18.40;94.30;;;;;;5001692;28;20200;-59
2023/04/02 02:14:46;;;;;;;3.72;1.70;;;18.40;94.30;;;;;;5001394;28;20069;-59
2023/04/02 02:17:18;;;;;;;3.08;1.60;;;18.40;94.30;;;;;;5001572;28;20038;-60
2023/04/02 02:19:51;;;;;;;3.03;1.63;;;18.40;94.20;;;;;;5000812;28;20470;-59
2023/04/02 02:22:32;;;;;;;2.67;1.50;;;18.40;94.20;;;;;;5069588;28;20361;-60
2023/04/02 02:25:04;;;;;;;3.85;1.52;;;18.40;94.10;;;;;;5071928;28;20046;-59
2023/04/02 02:27:52;;;;;;;3.38;1.75;;;18.40;94.10;;;;;;5004851;28;20484;-59
2023/04/02 02:30:25;;;;;;;2.40;1.50;;;18.40;94.10;;;;;;5004957;28;20373;-60
2023/04/02 02:33:15;;;;;;;2.83;1.63;;;18.40;94.10;;;;;;5073126;28;20098;-59
2023/04/02 02:35:56;;;;;;;3.67;1.65;;;18.40;94.00;;;;;;5003683;28;20390;-60
2023/04/02 02:38:43;;;;;;;3.30;1.70;;;18.40;94.00;;;;;;5072937;28;20064;-60
2023/04/02 02:41:29;;;;;;;2.88;1.60;;;18.40;94.00;;;;;;5090052;28;20048;-59
2023/04/02 02:44:04;;;;;;;2.50;1.50;;;18.30;93.90;;;;;;5004616;28;20058;-60
2023/04/02 02:46:31;;;;;;;;;;;18.30;93.80;;;;;;5005510;28;20611;-59
2023/04/02 02:48:58;;;;;;;2.53;1.67;;;18.30;93.70;;;;;;5003784;28;19928;-59
2023/04/02 02:51:29;;;;;;;3.22;1.60;;;18.30;93.70;;;;;;5004419;28;20138;-59
2023/04/02 02:54:01;;;;;;;3.35;1.58;;;18.30;93.60;;;;;;5004669;28;20046;-59
2023/04/02 02:56:30;;;;;;;2.60;1.42;;;18.30;93.60;;;;;;5004430;28;20056;-60
2023/04/02 02:58:55;;;;;;;3.22;1.40;;;18.30;93.50;;;;;;5004222;28;20042;-59
2023/04/02 03:01:21;;;;;;;3.03;1.73;;;18.30;93.50;;;;;;5004799;28;20091;-59
2023/04/02 03:03:48;;;;;;;3.53;1.70;;;18.30;93.50;;;;;;5004491;28;20495;-59
2023/04/02 03:06:15;;;;;;;2.70;1.42;;;18.20;93.40;;;;;;5004305;28;20523;-59
2023/04/02 03:08:53;;;;;;;4.97;1.52;;;18.30;93.40;;;;;;5004479;28;20034;-59
2023/04/02 03:11:40;;;;;;;2.88;1.38;;;18.30;93.40;;;;;;5004724;28;20060;-59
2023/04/02 03:14:41;;;;;;;2.70;1.55;;;18.20;93.30;;;;;;5004194;28;20096;-59
2023/04/02 03:17:19;;;;;;;2.22;1.30;;;18.20;93.30;;;;;;5010910;28;20114;-60
2023/04/02 03:19:57;;;;;;;3.15;1.65;;;18.20;93.30;;;;;;5003573;28;20050;-59
2023/04/02 03:22:31;;;;;;;2.83;1.50;;;18.20;93.20;;;;;;5004793;28;20069;-60
2023/04/02 03:25:03;;;;;;;2.95;1.65;;;18.20;93.20;;;;;;5004297;28;20063;-60
2023/04/02 03:27:32;;;;;;;2.85;1.38;;;18.20;93.10;;;;;;5003923;28;20042;-59
2023/04/02 03:30:15;;;;;;;2.38;1.23;;;18.20;93.00;;;;;;5004183;28;20710;-60
2023/04/02 03:32:42;;;;;;;3.13;1.30;;;18.20;93.00;;;;;;5004133;28;20190;-59
2023/04/02 03:35:32;;;;;;;2.65;1.23;;;18.20;92.90;;;;;;5070008;28;20038;-59
2023/04/02 03:38:10;;;;;;;3.63;1.55;;;18.10;92.80;;;;;;5003462;28;20065;-59
2023/04/02 03:40:52;;;;;;;2.88;1.38;;;18.10;92.90;;;;;;5004065;28;20119;-60
2023/04/02 03:43:25;;;;;;;2.88;1.27;;;18.20;92.90;;;;;;5003596;28;20057;-59
2023/04/02 03:46:02;;;;;;;2.33;1.15;;;18.10;92.90;;;;;;5004540;28;20038;-59
2023/04/02 03:48:36;;;;;;;2.80;1.40;;;18.10;92.80;;;;;;5002530;28;20044;-59
2023/04/02 03:51:25;;;;;;;3.60;1.42;;;18.10;92.70;;;;;;5003756;28;20128;-59
2023/04/02 03:53:51;;;;;;;2.33;1.30;;;18.10;92.70;;;;;;5010338;28;20513;-59
2023/04/02 03:56:38;;;;;;;3.05;1.30;;;18.10;92.70;;;;;;5003519;28;20056;-60
2023/04/02 03:59:13;;;;;;;2.15;1.30;;;18.10;92.70;;;;;;5003442;28;20050;-59
2023/04/02 04:01:47;;;;;;;2.38;1.35;;;18.00;92.60;;;;;;5003735;28;20099;-59
2023/04/02 04:04:17;;;;;;;2.05;1.00;;;18.60;92.80;;;;;;5070687;28;20082;-59
2023/04/02 04:06:48;;;;;;;3.45;1.77;;;18.00;92.50;;;;;;5003499;28;20038;-59
2023/04/02 04:09:30;;;;;;;2.72;1.20;;;18.00;92.50;;;;;;5071187;28;20081;-60
2023/04/02 04:12:23;;;;;;;2.50;1.30;;;18.00;92.40;;;;;;5003396;28;20084;-61
2023/04/02 04:14:53;;;;;;;2.20;1.20;;;18.00;92.40;;;;;;5003511;28;20045;-59
2023/04/02 04:17:29;;;;;;;2.78;1.05;;;18.00;92.40;;;;;;5003184;28;20091;-60
2023/04/02 04:20:20;;;;;;;1.92;1.20;;;18.00;92.40;;;;;;5002656;28;20045;-59
2023/04/02 04:22:48;;;;;;;1.65;1.02;;;18.00;92.40;;;;;;5003337;28;20433;-60
2023/04/02 04:25:32;;;;;;;2.75;1.20;;;18.00;92.30;;;;;;5003169;28;20065;-59
2023/04/02 04:28:37;;;;;;;2.45;1.30;;;18.00;92.20;;;;;;5070868;28;20045;-60
2023/04/02 04:31:24;;;;;;;1.77;1.07;;;18.00;92.20;;;;;;5062639;28;20107;-59
2023/04/02 04:33:54;;;;;;;1.67;0.93;;;18.00;92.10;;;;;;5004536;28;20373;-60
2023/04/02 04:36:27;;;;;;;2.53;1.20;;;17.90;92.10;;;;;;5070266;28;20056;-59
2023/04/02 04:38:58;;;;;;;2.03;1.23;;;17.90;92.10;;;;;;5003531;28;20050;-60
2023/04/02 04:41:34;;;;;;;2.15;1.10;;;17.90;92.00;;;;;;5002994;28;20042;-60
2023/04/02 04:44:21;;;;;;;2.20;1.10;;;17.90;92.00;;;;;;5002655;28;20081;-59
2023/04/02 04:46:51;;;;;;;1.75;1.00;;;17.90;92.10;;;;;;5002211;28;20411;-59
2023/04/02 04:49:27;;;;;;;3.45;1.40;;;17.90;92.00;;;;;;5069773;28;20574;-60
2023/04/02 04:52:15;;;;;;;1.98;1.30;;;17.90;91.90;;;;;;5002389;28;20549;-59
2023/04/02 04:54:41;;;;;;;2.17;1.10;;;17.90;91.90;;;;;;5009292;28;20561;-59
2023/04/02 04:57:19;;;;;;;2.13;1.00;;;17.90;91.90;;;;;;5002004;28;20203;-61
2023/04/02 04:59:54;;;;;;;1.70;0.95;;;17.90;91.80;;;;;;5002377;28;20083;-59
2023/04/02 05:02:30;;;;;;;2.42;1.08;;;17.80;91.80;;;;;;5002805;28;20128;-59
2023/04/02 05:04:55;;;;;;;2.35;1.10;;;17.90;91.80;;;;;;5002320;28;20046;-59
2023/04/02 05:07:26;;;;;;;2.05;1.00;;;17.90;91.80;;;;;;5002646;28;20107;-59
2023/04/02 05:10:16;;;;;;;2.20;1.00;;;17.80;91.80;;;;;;5069319;28;20046;-59
2023/04/02 05:12:53;;;;;;;2.70;1.20;;;17.80;91.70;;;;;;5002392;28;20054;-59
2023/04/02 05:15:30;;;;;;;1.98;1.15;;;17.80;91.60;;;;;;5001886;28;20069;-59
2023/04/02 05:18:36;;;;;;;3.15;1.08;;;17.80;91.60;;;;;;5002177;28;20175;-62
2023/04/02 05:21:38;;;;;;;1.45;0.80;;;17.80;91.60;;;;;;5002388;28;20053;-59
2023/04/02 05:24:18;;;;;;;2.58;0.85;;;17.80;91.60;;;;;;5002249;28;20056;-59
2023/04/02 05:26:48;;;;;;;2.08;0.90;;;17.90;91.70;;;;;;5001617;28;20054;-59
2023/04/02 05:29:23;;;;;;;2.05;1.10;;;18.00;91.50;;;;;;5002366;28;20037;-59
2023/04/02 05:32:20;;;;;;;1.92;0.90;;;18.10;91.30;;;;;;5002244;28;20069;-59
2023/04/02 05:34:51;;;;;;;1.27;0.73;;;18.30;91.10;;;;;;5001585;28;20183;-59
2023/04/02 05:37:23;;;;;;;1.95;0.80;;;18.40;90.90;;;;;;5002093;28;20046;-59
2023/04/02 05:39:54;;;;;;;3.28;1.10;;;18.60;90.70;;;;;;5002223;28;20042;-58
2023/04/02 05:42:24;;;;;;;1.67;0.77;;;18.70;90.60;;;;;;5001943;28;20113;-58
2023/04/02 05:45:26;;;;;;;2.28;0.90;;;18.80;90.40;;;;;;5001518;28;20042;-59
2023/04/02 05:47:58;;;;;;;2.03;1.00;;;18.20;90.10;;;;;;5001082;28;20538;-59
2023/04/02 05:50:36;;;;;;;0.90;0.70;;;18.80;90.30;;;;;;4991589;28;20061;-60
2023/04/02 05:53:16;;;;;;;2.28;0.88;;;18.90;90.20;;;;;;4993997;28;20457;-62
2023/04/02 05:55:48;;;;;;;1.58;0.80;;;18.90;90.20;;;;;;4993493;28;20385;-59
2023/04/02 05:58:27;;;;;;;1.02;0.70;;;18.90;90.10;;;;;;4991353;28;20058;-59
2023/04/02 06:01:00;;;;;;;1.35;1.00;;;18.90;90.10;;;;;;4994784;28;20049;-60
2023/04/02 06:03:36;;;;;;;1.13;0.77;;;19.00;90.10;;;;;;4988640;28;20144;-59
2023/04/02 06:06:17;;;;;;;2.28;0.90;;;19.00;90.00;;;;;;4985573;28;20455;-61
2023/04/02 06:08:56;;;;;;;1.80;0.90;;;19.00;90.00;;;;;;4983560;28;20038;-59
2023/04/02 06:11:41;;;;;;;2.38;0.80;;;19.10;90.00;;;;;;4983156;28;20162;-59
2023/04/02 06:14:14;;;;;;;1.58;0.80;;;19.10;89.90;;;;;;5050583;28;20050;-58
2023/04/02 06:16:42;;;;;;;1.88;0.80;;;19.10;89.90;;;;;;4982345;28;20057;-60
2023/04/02 06:19:17;;;;;;;1.70;0.82;;;19.10;89.80;;;;;;5048835;28;20049;-59
2023/04/02 06:21:45;;;;;;;2.22;0.80;;;19.10;89.70;;;;;;4981924;28;20034;-59
2023/04/02 06:24:14;;;;;;;1.38;0.60;;;19.10;89.60;;;;;;4982604;28;20057;-58
2023/04/02 06:26:52;;;;;;;1.70;0.75;;;19.20;89.50;;;;;;4982973;28;20058;-58
2023/04/02 06:29:24;;;;;;;2.13;0.90;;;19.20;89.50;;;;;;4999108;28;20046;-59
2023/04/02 06:31:52;;;;;;;1.73;0.70;;;19.20;89.50;;;;;;5002313;28;20076;-59
2023/04/02 06:34:21;;;;;;;1.33;0.70;;;19.20;89.30;;;;;;5069483;28;20129;-60
2023/04/02 06:36:47;;;;;;;1.02;0.70;;;19.20;89.30;;;;;;5070298;28;20099;-59
2023/04/02 06:39:22;;;;;;;2.38;0.80;;;19.20;89.40;;;;;;5002555;28;20050;-59
2023/04/02 06:42:18;;;;;;;1.33;0.70;;;19.20;89.50;;;;;;5002215;28;20046;-58
2023/04/02 06:44:44;;;;;;;1.40;0.57;;;19.20;89.30;;;;;;5003115;28;20539;-60
2023/04/02 06:47:28;;;;;;;1.65;0.70;;;19.20;89.30;;;;;;5002344;28;20049;-59
2023/04/02 06:50:17;;;;;;;1.80;0.85;;;19.30;89.20;;;;;;4982566;28;20054;-59
2023/04/02 06:52:47;;;;;;;2.05;0.90;;;19.30;89.10;;;;;;4983389;28;20529;-59
2023/04/02 06:55:19;;;;;;;1.08;0.68;;;19.30;89.00;;;;;;5049985;28;20046;-58
2023/04/02 06:57:48;;;;;;;1.35;0.77;;;19.30;89.10;;;;;;4983369;28;20086;-59
2023/04/02 07:00:33;;;;;;;1.60;0.73;;;19.30;89.00;;;;;;4982887;28;20042;-59
2023/04/02 07:03:00;;;;;;;1.17;0.65;;;19.30;89.10;;;;;;4982121;28;20086;-59
2023/04/02 07:05:26;;;;;;;1.48;0.75;;;19.30;89.00;;;;;;4983211;28;20121;-59
2023/04/02 07:07:51;;;;;;;2.03;0.93;;;19.30;89.00;;;;;;4983208;28;20130;-59
2023/04/02 07:10:19;;;;;;;1.67;0.80;;;19.30;89.00;;;;;;4983195;28;20049;-60
2023/04/02 07:12:45;;;;;;;1.50;0.73;;;19.30;88.90;;;;;;4986086;28;20488;-61
2023/04/02 07:15:15;;;;;;;1.10;0.60;;;19.30;88.80;;;;;;4986241;28;20042;-62
2023/04/02 07:17:41;;;;;;;1.38;0.70;;;19.40;89.70;;;;;;4985481;28;20134;-60
2023/04/02 07:20:28;;;;;;;1.92;0.80;;;19.40;89.30;;;;;;4986379;28;20134;-59
2023/04/02 07:22:54;;;;;;;2.05;0.70;;;19.40;89.40;;;;;;5053666;28;20055;-57
2023/04/02 07:25:20;;;;;;;2.55;0.93;;;19.40;89.50;;;;;;4985105;28;20069;-58
2023/04/02 07:27:46;;;;;;;2.10;0.90;;;19.40;89.30;;;;;;4985885;28;20065;-58
2023/04/02 07:30:12;;;;;;;2.65;1.00;;;19.40;88.90;;;;;;4986398;28;20069;-58
2023/04/02 07:32:38;;;;;;;2.42;0.80;;;19.40;87.90;;;;;;4984654;28;20072;-58
2023/04/02 07:35:04;;;;;;;2.33;1.00;;;19.40;87.70;;;;;;4986410;28;20038;-60
2023/04/02 07:37:30;;;;;;;1.95;0.80;;;19.50;88.20;;;;;;4985683;28;20047;-58
2023/04/02 07:39:56;;;;;;;4.43;0.93;;;19.50;88.20;;;;;;4985382;28;20054;-58
2023/04/02 07:42:22;;;;;;;5.63;0.73;;;19.60;88.40;;;;;;4985470;28;20199;-59
2023/04/02 07:44:47;;;;;;;3.20;1.00;;;19.50;88.60;;;;;;4990166;28;20053;-60
2023/04/02 07:47:13;;;;;;;2.80;0.77;;;19.50;88.80;;;;;;4996112;28;20530;-59
2023/04/02 07:49:39;;;;;;;2.80;0.70;;;19.50;88.40;;;;;;4988984;28;20050;-59
2023/04/02 07:52:05;;;;;;;4.15;1.08;;;19.50;87.30;;;;;;4985548;28;20053;-59
2023/04/02 07:54:31;;;;;;;3.65;1.02;;;19.60;87.30;;;;;;4986389;28;20054;-59
2023/04/02 07:56:56;;;;;;;3.03;1.10;;;19.60;87.30;;;;;;4985072;28;20046;-59
2023/04/02 07:59:22;;;;;;;2.00;1.00;;;19.60;87.30;;;;;;4990440;28;20413;-58
2023/04/02 08:01:48;;;;;;;5.22;1.20;;;19.60;87.50;;;;;;4995237;28;20485;-59
2023/04/02 08:04:21;;;;;;;4.57;1.00;;;19.50;87.60;;;;;;4998214;28;20149;-58
2023/04/02 08:06:48;;;;;;;4.22;0.75;;;19.60;86.80;;;;;;4997072;28;20460;-59
2023/04/02 08:09:15;;;;;;;1.90;0.88;;;19.60;86.80;;;;;;5004092;28;20053;-58
2023/04/02 08:11:41;;;;;;;4.72;0.80;;;19.60;86.90;;;;;;5004090;28;20330;-58
2023/04/02 08:14:10;;;;;;;3.05;0.90;;;19.70;87.10;;;;;;5072381;28;20050;-58
2023/04/02 08:16:49;;;;;;;4.82;1.08;;;19.70;87.50;;;;;;5005002;28;20050;-59
2023/04/02 08:19:15;;;;;;;3.65;1.05;;;19.70;87.80;;;;;;5003605;28;20049;-58
2023/04/02 08:21:41;;;;;;;9.40;1.25;;;19.70;88.10;;;;;;5004109;28;20052;-58
2023/04/02 08:24:07;;;;;;;2.92;0.80;;;19.70;88.50;;;;;;5004413;28;20540;-58
2023/04/02 08:26:32;;;;;;;3.88;0.70;;;19.80;88.80;;;;;;5002627;28;20056;-58
2023/04/02 08:28:58;;;;;;;2.65;1.00;;;19.80;88.90;;;;;;5004509;28;20084;-59
2023/04/02 08:31:24;;;;;;;4.10;1.02;;;19.80;89.40;;;;;;5004473;28;20481;-58
2023/04/02 08:33:49;;;;;;;3.72;0.82;;;19.90;89.30;;;;;;5003347;28;20046;-58
2023/04/02 08:36:16;;;;;;;2.63;1.00;;;19.90;89.40;;;;;;5004408;28;20545;-59
2023/04/02 08:38:42;;;;;;;3.53;0.88;;;20.00;89.60;;;;;;5004554;28;20050;-58
2023/04/02 08:41:22;;;;;;;4.32;1.10;;;20.00;89.90;;;;;;5002247;28;20064;-57
2023/04/02 08:44:08;;;;;;;5.18;1.00;;;20.00;90.00;;;;;;5000066;28;20536;-58
2023/04/02 08:46:46;;;;;;;2.85;0.98;;;20.00;90.00;;;;;;5003956;28;20046;-59
2023/04/02 08:49:34;;;;;;;3.60;1.00;;;20.00;90.20;;;;;;5003438;28;20041;-58
2023/04/02 08:52:00;;;;;;;2.70;1.10;;;20.00;90.00;;;;;;5004071;28;20057;-58
2023/04/02 08:54:32;;;;;;;4.47;0.95;;;20.00;90.10;;;;;;5003831;28;20046;-57
2023/04/02 08:57:10;;;;;;;7.10;1.00;;;20.00;90.20;;;;;;5071654;28;20412;-62
2023/04/02 08:59:39;;;;;;;3.92;0.90;;;20.00;90.50;;;;;;5004366;28;20046;-59
2023/04/02 09:02:27;;;;;;;3.40;0.90;;;20.00;90.50;;;;;;5004521;28;20045;-61
2023/04/02 09:04:54;;;;;;;5.78;0.98;;;20.00;90.20;;;;;;5003639;28;20069;-58
2023/04/02 09:07:20;;;;;;;4.13;0.75;;;20.00;84.80;;;;;;4994907;28;20042;-57
2023/04/02 09:09:48;;;;;;;5.13;1.10;;;19.90;86.70;;;;;;5002156;28;20045;-60
2023/04/02 09:12:20;;;;;;;6.15;1.10;;;19.90;85.80;;;;;;5003227;28;20137;-59
2023/04/02 09:15:13;;;;;;;2.50;1.00;;;20.00;86.00;;;;;;5002588;28;20061;-58
2023/04/02 09:17:40;;;;;;;6.47;1.10;;;20.00;86.20;;;;;;4983431;28;20050;-63
2023/04/02 09:20:17;;;;;;;6.05;1.50;;;20.00;85.90;;;;;;4984015;28;20042;-58
2023/04/02 09:22:50;;;;;;;4.30;0.80;;;20.10;85.70;;;;;;4983743;28;20084;-60
2023/04/02 09:25:32;;;;;;;2.92;0.90;;;20.00;86.20;;;;;;4991957;28;20079;-58
2023/04/02 09:28:03;;;;;;;3.75;0.90;;;20.10;86.10;;;;;;5070937;28;20098;-58
2023/04/02 09:30:31;;;;;;;4.20;1.00;;;20.10;85.90;;;;;;5088084;28;20050;-58
2023/04/02 09:33:01;;;;;;;2.97;0.95;;;20.10;85.40;;;;;;5002070;28;20094;-59
2023/04/02 09:35:29;;;;;;;2.40;0.85;;;20.20;85.50;;;;;;5002961;28;20120;-59
2023/04/02 09:38:06;;;;;;;2.40;0.73;;;20.20;85.90;;;;;;5003088;28;20046;-59
2023/04/02 09:40:41;;;;;;;2.90;0.90;;;20.20;86.30;;;;;;5002780;28;20044;-60
2023/04/02 09:43:11;;;;;;;;;;;20.20;86.50;;;;;;5003597;28;20045;-59
2023/04/02 09:45:37;;;;;;;5.68;0.90;;;20.30;86.50;;;;;;5003101;28;19922;-59
2023/04/02 09:48:34;;;;;;;3.80;0.70;;;20.30;86.50;;;;;;5002357;28;20087;-59
2023/04/02 09:51:09;;;;;;;2.33;0.70;;;20.40;86.60;;;;;;5070033;28;20062;-59
2023/04/02 09:53:49;;;;;;;3.58;0.90;;;20.30;86.60;;;;;;4998890;28;20099;-59
2023/04/02 09:56:20;;;;;;;2.97;0.90;;;20.40;86.60;;;;;;5050341;28;20055;-59
2023/04/02 09:59:02;;;;;;;1.75;0.88;;;20.40;86.60;;;;;;4985443;28;20096;-59
2023/04/02 10:01:37;;;;;;;4.30;0.90;;;20.40;86.70;;;;;;4997380;28;20127;-58
2023/04/02 10:04:05;;;;;;;3.83;0.98;;;20.40;86.30;;;;;;4983103;28;20053;-58
2023/04/02 10:06:33;;;;;;;2.88;0.90;;;20.40;86.10;;;;;;4982887;28;20049;-60
2023/04/02 10:09:20;;;;;;;1.92;0.80;;;20.40;86.40;;;;;;4983707;28;20053;-58
2023/04/02 10:11:47;;;;;;;2.75;0.70;;;20.40;86.40;;;;;;4983287;28;20057;-59
2023/04/02 10:14:27;;;;;;;2.78;0.95;;;20.40;86.50;;;;;;4983257;28;20049;-59
2023/04/02 10:16:58;;;;;;;2.65;1.10;;;20.40;86.50;;;;;;4983563;28;20153;-60
2023/04/02 10:19:28;;;;;;;2.60;0.82;;;20.50;86.60;;;;;;4983055;28;20121;-59
2023/04/02 10:21:56;;;;;;;3.15;0.80;;;20.60;86.70;;;;;;4983540;28;20409;-62
2023/04/02 10:24:26;;;;;;;2.85;0.90;;;20.60;86.50;;;;;;5051007;28;20042;-60
2023/04/02 10:27:21;;;;;;;2.08;0.70;;;20.70;86.50;;;;;;4984132;28;20062;-59
2023/04/02 10:29:47;;;;;;;2.13;0.88;;;20.70;86.30;;;;;;4983387;28;20062;-58
2023/04/02 10:32:12;;;;;;;3.50;0.93;;;20.70;86.30;;;;;;4983164;28;20115;-59
2023/04/02 10:35:03;;;;;;;4.97;1.02;;;20.70;85.20;;;;;;4983386;28;20073;-58
2023/04/02 10:37:35;;;;;;;4.80;0.80;;;20.70;84.60;;;;;;4983326;28;20046;-60
2023/04/02 10:40:27;;;;;;;2.38;0.60;;;20.70;84.60;;;;;;4983008;28;20493;-59
2023/04/02 10:43:02;;;;;;;5.32;1.13;;;20.70;84.90;;;;;;4983482;28;20038;-58
2023/04/02 10:45:58;;;;;;;4.50;0.80;;;20.70;85.30;;;;;;4985861;28;20409;-59
2023/04/02 10:49:03;;;;;;;12.63;0.85;;;20.70;85.40;;;;;;5069960;28;20054;-59
2023/04/02 10:51:43;;;;;;;6.28;0.95;;;20.80;85.40;;;;;;4986182;28;20405;-59
2023/04/02 10:54:46;;;;;;;25.70;1.02;;;20.80;85.50;;;;;;5054763;28;20074;-59
2023/04/02 10:57:35;;;;;;;4.65;0.80;;;20.90;85.50;;;;;;4986400;28;20497;-59
2023/04/02 11:00:15;;;;;;;2.45;0.70;;;20.90;85.50;;;;;;4986707;28;20046;-59
2023/04/02 11:02:53;;;;;;;2.72;0.60;;;20.90;85.50;;;;;;4986111;28;20062;-59
2023/04/02 11:05:22;;;;;;;2.13;0.73;;;20.90;85.40;;;;;;4986564;28;20151;-60
2023/04/02 11:07:56;;;;;;;2.63;0.85;;;20.80;85.60;;;;;;4986451;28;20440;-58
2023/04/02 11:10:22;;;;;;;;;;;20.80;85.60;;;;;;4986641;28;20742;-59
2023/04/02 11:13:21;;;;;;;2.88;0.70;;;20.90;85.50;;;;;;5053128;28;19922;-59
2023/04/02 11:15:47;;;;;;;1.70;0.70;;;20.90;85.50;;;;;;4993548;28;20412;-60
2023/04/02 11:18:28;;;;;;;2.58;0.77;;;20.90;85.60;;;;;;4985213;28;20117;-59
2023/04/02 11:20:56;;;;;;;1.88;0.95;;;20.90;85.50;;;;;;4986171;28;20362;-58
2023/04/02 11:23:25;;;;;;;2.80;0.63;;;21.00;85.40;;;;;;4986005;28;20177;-58
2023/04/02 11:25:51;;;;;;;8.45;0.85;;;21.00;85.30;;;;;;4985990;28;20062;-59
2023/04/02 11:28:26;;;;;;;2.95;0.60;;;21.00;85.30;;;;;;4986665;28;20065;-59
2023/04/02 11:30:52;;;;;;;1.92;0.57;;;21.00;85.40;;;;;;4985740;28;20155;-60
2023/04/02 11:33:24;;;;;;;2.97;0.80;;;21.00;85.40;;;;;;4985391;28;20092;-59
2023/04/02 11:35:50;;;;;;;2.33;0.60;;;20.90;85.40;;;;;;4985928;28;20050;-59
2023/04/02 11:38:22;;;;;;;1.60;0.50;;;20.80;85.60;;;;;;4986364;28;20554;-60
2023/04/02 11:40:55;;;;;;;2.63;0.70;;;20.90;85.50;;;;;;4985771;28;20053;-59
2023/04/02 11:43:33;;;;;;;1.60;0.70;;;20.90;85.60;;;;;;4985794;28;20177;-59
2023/04/02 11:46:24;;;;;;;1.45;0.50;;;21.00;85.50;;;;;;4985990;28;20540;-60
2023/04/02 11:48:50;;;;;;;1.83;0.50;;;20.90;85.40;;;;;;4984670;28;20089;-59
2023/04/02 11:51:22;;;;;;;3.03;0.75;;;21.00;85.50;;;;;;4985968;28;20042;-59
2023/04/02 11:53:50;;;;;;;1.88;0.68;;;20.80;85.60;;;;;;5052374;28;20046;-58
2023/04/02 11:56:40;;;;;;;2.58;0.70;;;20.90;85.70;;;;;;4984422;28;20088;-60
2023/04/02 11:59:21;;;;;;;1.98;0.70;;;20.90;85.60;;;;;;4985194;28;20103;-59
2023/04/02 12:01:47;;;;;;;3.33;0.60;;;21.00;85.80;;;;;;4986060;28;20042;-58
2023/04/02 12:04:55;;;;;;;1.17;0.50;;;21.10;85.50;;;;;;4984664;28;20043;-60
2023/04/02 12:07:54;;;;;;;2.22;0.50;;;21.00;85.40;;;;;;4992462;28;20069;-59
2023/04/02 12:10:31;;;;;;;1.50;0.60;;;21.10;85.70;;;;;;4985954;28;20038;-60
2023/04/02 12:12:57;;;;;;;1.80;0.63;;;21.10;85.60;;;;;;5052091;28;20054;-59
2023/04/02 12:15:35;;;;;;;3.10;0.90;;;21.20;85.40;;;;;;4984723;28;20051;-58
2023/04/02 12:18:23;;;;;;;1.45;0.57;;;21.20;83.50;;;;;;4983423;28;20142;-60
2023/04/02 12:20:54;;;;;;;1.75;0.52;;;21.20;84.60;;;;;;4984651;28;20049;-59
2023/04/02 12:23:31;;;;;;;1.08;0.50;;;21.20;84.70;;;;;;4984970;28;20047;-61
2023/04/02 12:26:05;;;;;;;2.58;0.52;;;21.30;84.90;;;;;;4984531;28;20055;-59
2023/04/02 12:28:32;;;;;;;1.98;0.60;;;21.30;84.70;;;;;;4985057;28;20196;-60
2023/04/02 12:31:07;;;;;;;3.55;1.00;;;21.40;84.90;;;;;;4985139;28;20132;-60
2023/04/02 12:33:36;;;;;;;2.05;0.60;;;21.40;85.40;;;;;;4984389;28;20149;-59
2023/04/02 12:36:05;;;;;;;1.85;0.80;;;21.40;85.50;;;;;;5051708;28;20050;-59
2023/04/02 12:38:42;;;;;;;2.45;0.50;;;21.40;85.60;;;;;;4984258;28;20041;-59
2023/04/02 12:41:28;;;;;;;1.38;0.50;;;21.50;85.90;;;;;;4984184;28;20060;-60
2023/04/02 12:44:05;;;;;;;1.70;0.70;;;21.50;86.00;;;;;;4984694;28;20046;-60
2023/04/02 12:46:33;;;;;;;2.90;0.82;;;21.60;86.00;;;;;;4984213;28;20050;-59
2023/04/02 12:49:26;;;;;;;2.05;0.50;;;21.60;86.20;;;;;;4983745;28;20050;-62
2023/04/02 12:51:53;;;;;;;3.17;0.50;;;21.50;86.50;;;;;;4985001;28;20060;-63
2023/04/02 12:54:19;;;;;;;2.83;0.68;;;21.60;86.80;;;;;;4984440;28;20058;-59
2023/04/02 12:56:47;;;;;;;2.60;0.60;;;21.50;86.70;;;;;;5051832;28;20057;-60
2023/04/02 12:59:35;;;;;;;1.85;0.57;;;21.60;86.90;;;;;;4984846;28;20050;-60
2023/04/02 13:02:21;;;;;;;3.00;0.80;;;21.60;86.90;;;;;;4983877;28;20047;-59
2023/04/02 13:04:49;;;;;;;1.83;0.52;;;21.70;86.50;;;;;;4985548;28;20038;-59
2023/04/02 13:07:21;;;;;;;1.95;0.70;;;21.70;86.50;;;;;;4985120;28;20050;-59
2023/04/02 13:09:50;;;;;;;1.55;0.50;;;21.70;86.60;;;;;;4985060;28;20038;-60
2023/04/02 13:12:26;;;;;;;1.15;0.50;;;21.70;86.50;;;;;;4985014;28;20082;-59
2023/04/02 13:14:55;;;;;;;1.05;0.40;;;21.70;86.60;;;;;;4984206;28;20042;-60
2023/04/02 13:18:01;;;;;;;1.45;0.60;;;21.80;86.60;;;;;;4983443;28;20054;-59
2023/04/02 13:20:31;;;;;;;1.05;0.40;;;21.80;86.50;;;;;;4983646;28;20501;-59
2023/04/02 13:22:59;;;;;;;1.35;0.47;;;21.80;86.60;;;;;;4984291;28;20095;-59
2023/04/02 13:25:33;;;;;;;1.20;0.60;;;21.80;86.60;;;;;;4983828;28;20097;-59
2023/04/02 13:27:59;;;;;;;1.50;0.50;;;21.80;86.70;;;;;;4984755;28;20103;-60